createdAt,value
2022-11-05T00:01:20.309Z,80.91
2022-11-05T00:03:46.492Z,80.89
2022-11-05T00:06:12.671Z,80.97
2022-11-05T00:08:38.801Z,80.95
2022-11-05T00:11:04.907Z,81.10
2022-11-05T00:13:30.993Z,81.09
2022-11-05T00:15:57.092Z,81.20
2022-11-05T00:18:23.200Z,81.16
2022-11-05T00:20:49.286Z,81.11
2022-11-05T00:23:15.376Z,81.05
2022-11-05T00:25:41.478Z,80.82
2022-11-05T00:28:07.566Z,80.92
2022-11-05T00:30:33.855Z,80.80
2022-11-05T00:32:59.975Z,80.59
2022-11-05T00:35:26.073Z,80.79
2022-11-05T00:37:52.178Z,80.63
2022-11-05T00:40:18.324Z,80.58
2022-11-05T00:42:44.503Z,80.60
2022-11-05T00:45:10.597Z,80.62
2022-11-05T00:47:36.700Z,80.43
2022-11-05T00:50:02.831Z,80.43
2022-11-05T00:52:28.935Z,80.68
2022-11-05T00:54:55.043Z,80.62
2022-11-05T00:57:21.139Z,80.63
2022-11-05T00:59:47.236Z,80.66
2022-11-05T01:02:13.505Z,80.43
2022-11-05T01:04:39.681Z,80.65
2022-11-05T01:07:05.780Z,80.53
2022-11-05T01:09:32.177Z,80.47
2022-11-05T01:11:58.262Z,80.43
2022-11-05T01:14:24.363Z,80.36
2022-11-05T01:16:50.476Z,80.51
2022-11-05T01:19:16.560Z,80.52
2022-11-05T01:21:42.643Z,80.38
2022-11-05T01:24:08.770Z,80.42
2022-11-05T01:26:34.860Z,80.28
2022-11-05T01:29:01.001Z,80.25
2022-11-05T01:31:27.191Z,80.30
2022-11-05T01:33:53.276Z,80.21
2022-11-05T01:36:19.376Z,80.08
2022-11-05T01:38:45.484Z,80.30
2022-11-05T01:41:11.594Z,80.10
2022-11-05T01:43:37.680Z,80.24
2022-11-05T01:46:03.830Z,80.23
2022-11-05T01:48:29.923Z,80.00
2022-11-05T01:50:56.024Z,80.09
2022-11-05T01:53:22.143Z,79.92
2022-11-05T01:55:48.239Z,79.99
2022-11-05T01:58:14.323Z,80.00
2022-11-05T02:00:40.461Z,80.14
2022-11-05T02:03:06.613Z,79.90
2022-11-05T02:05:32.740Z,79.96
2022-11-05T02:07:58.858Z,80.04
2022-11-05T02:10:24.947Z,80.36
2022-11-05T02:12:51.033Z,80.19
2022-11-05T02:15:17.150Z,80.00
2022-11-05T02:17:43.251Z,80.19
2022-11-05T02:20:09.344Z,80.12
2022-11-05T02:22:35.464Z,80.01
2022-11-05T02:25:01.571Z,80.11
2022-11-05T02:27:27.656Z,79.96
2022-11-05T02:29:53.772Z,80.02
2022-11-05T02:32:19.864Z,79.89
2022-11-05T02:34:45.977Z,80.20
2022-11-05T02:37:12.098Z,80.00
2022-11-05T02:39:38.200Z,80.01
2022-11-05T02:42:05.300Z,79.93
2022-11-05T02:44:31.559Z,79.98
2022-11-05T02:46:57.642Z,80.19
2022-11-05T02:49:23.720Z,80.12
2022-11-05T02:51:49.873Z,79.98
2022-11-05T02:54:15.972Z,80.01
2022-11-05T02:56:42.056Z,80.01
2022-11-05T02:59:08.226Z,80.09
2022-11-05T03:01:34.422Z,80.21
2022-11-05T03:04:00.580Z,80.03
2022-11-05T03:06:26.695Z,80.22
2022-11-05T03:08:52.792Z,80.02
2022-11-05T03:11:18.875Z,80.27
2022-11-05T03:13:44.971Z,80.10
2022-11-05T03:16:11.095Z,80.14
2022-11-05T03:18:37.199Z,80.16
2022-11-05T03:21:03.361Z,80.18
2022-11-05T03:23:29.468Z,80.36
2022-11-05T03:25:55.567Z,80.34
2022-11-05T03:28:21.668Z,80.06
2022-11-05T03:30:47.766Z,80.01
2022-11-05T03:33:14.046Z,80.25
2022-11-05T03:35:40.250Z,79.91
2022-11-05T03:38:06.342Z,79.96
2022-11-05T03:40:32.488Z,80.12
2022-11-05T03:42:58.620Z,79.94
2022-11-05T03:45:24.724Z,80.05
2022-11-05T03:47:50.837Z,80.01
2022-11-05T03:50:16.983Z,79.99
2022-11-05T03:52:43.077Z,79.90
2022-11-05T03:55:09.164Z,80.17
2022-11-05T03:57:35.260Z,80.22
2022-11-05T04:00:01.357Z,80.19
2022-11-05T04:02:27.619Z,80.19
2022-11-05T04:04:53.791Z,80.14
2022-11-05T04:07:19.937Z,79.90
2022-11-05T04:09:46.023Z,79.94
2022-11-05T04:12:12.143Z,79.97
2022-11-05T04:14:38.219Z,80.16
2022-11-05T04:17:04.307Z,80.10
2022-11-05T04:19:30.419Z,80.21
2022-11-05T04:21:56.523Z,80.08
2022-11-05T04:24:22.610Z,80.03
2022-11-05T04:26:48.716Z,79.92
2022-11-05T04:29:14.809Z,80.01
2022-11-05T04:31:40.903Z,79.83
2022-11-05T04:34:07.015Z,80.13
2022-11-05T04:36:33.101Z,80.02
2022-11-05T04:38:59.184Z,79.88
2022-11-05T04:41:25.316Z,79.92
2022-11-05T04:43:51.413Z,79.81
2022-11-05T04:46:17.552Z,79.76
2022-11-05T04:48:43.661Z,79.46
2022-11-05T04:51:09.753Z,79.58
2022-11-05T04:53:35.841Z,79.45
2022-11-05T04:56:02.001Z,79.37
2022-11-05T04:58:28.660Z,79.23
2022-11-05T05:00:54.794Z,79.66
2022-11-05T05:03:20.948Z,79.54
2022-11-05T05:05:47.046Z,79.22
2022-11-05T05:08:13.142Z,79.32
2022-11-05T05:10:39.258Z,79.32
2022-11-05T05:13:05.360Z,79.47
2022-11-05T05:15:31.463Z,79.33
2022-11-05T05:17:57.571Z,79.44
2022-11-05T05:20:23.668Z,79.41
2022-11-05T05:22:49.762Z,79.36
2022-11-05T05:25:16.077Z,79.24
2022-11-05T05:27:42.176Z,79.35
2022-11-05T05:30:08.274Z,79.04
2022-11-05T05:32:34.384Z,79.04
2022-11-05T05:35:00.482Z,79.18
2022-11-05T05:37:26.595Z,79.21
2022-11-05T05:39:52.718Z,79.07
2022-11-05T05:42:18.808Z,79.18
2022-11-05T05:44:44.901Z,79.03
2022-11-05T05:47:11.017Z,79.09
2022-11-05T05:49:37.124Z,78.74
2022-11-05T05:52:03.211Z,78.81
2022-11-05T05:54:33.454Z,78.95
2022-11-05T05:57:00.341Z,78.87
2022-11-05T05:59:26.432Z,79.08
2022-11-05T06:01:52.649Z,79.08
2022-11-05T06:04:18.806Z,78.98
2022-11-05T06:06:44.910Z,79.09
2022-11-05T06:09:11.020Z,78.82
2022-11-05T06:11:37.113Z,78.98
2022-11-05T06:14:03.192Z,78.92
2022-11-05T06:16:29.321Z,79.09
2022-11-05T06:18:55.488Z,79.20
2022-11-05T06:21:21.577Z,79.26
2022-11-05T06:23:47.673Z,79.14
2022-11-05T06:26:13.776Z,79.21
2022-11-05T06:28:39.880Z,79.03
2022-11-05T06:31:06.477Z,78.92
2022-11-05T06:33:32.559Z,79.11
2022-11-05T06:35:58.645Z,79.13
2022-11-05T06:38:24.748Z,79.08
2022-11-05T06:40:50.853Z,79.22
2022-11-05T06:43:16.954Z,79.27
2022-11-05T06:45:43.080Z,79.55
2022-11-05T06:48:09.163Z,79.18
2022-11-05T06:50:35.254Z,79.30
2022-11-05T06:53:01.472Z,79.51
2022-11-05T06:55:27.564Z,79.66
2022-11-05T06:57:56.625Z,79.59
2022-11-05T07:00:22.810Z,79.60
2022-11-05T07:02:48.931Z,79.45
2022-11-05T07:05:15.026Z,79.63
2022-11-05T07:07:41.145Z,79.35
2022-11-05T07:10:07.232Z,79.35
2022-11-05T07:12:33.319Z,79.46
2022-11-05T07:15:08.759Z,79.76
2022-11-05T07:17:37.557Z,79.58
2022-11-05T07:20:03.668Z,79.25
2022-11-05T07:22:30.186Z,79.34
2022-11-05T07:24:56.314Z,79.59
2022-11-05T07:27:22.440Z,79.42
2022-11-05T07:29:49.812Z,79.49
2022-11-05T07:32:15.926Z,79.81
2022-11-05T07:34:42.077Z,79.42
2022-11-05T07:37:08.780Z,79.64
2022-11-05T07:39:34.913Z,79.86
2022-11-05T07:42:08.809Z,80.11
2022-11-05T07:44:34.944Z,79.53
2022-11-05T07:47:01.032Z,79.82
2022-11-05T07:49:27.153Z,79.64
2022-11-05T07:51:53.432Z,79.69
2022-11-05T07:54:19.537Z,79.90
2022-11-05T07:56:45.683Z,79.75
2022-11-05T07:59:11.818Z,79.59
2022-11-05T08:01:38.150Z,79.68
2022-11-05T08:04:07.274Z,79.66
2022-11-05T08:06:33.368Z,79.65
2022-11-05T08:08:59.476Z,79.66
2022-11-05T08:11:25.899Z,79.73
2022-11-05T08:13:52.007Z,80.05
2022-11-05T08:16:18.097Z,79.76
2022-11-05T08:18:44.204Z,80.08
2022-11-05T08:21:10.286Z,80.11
2022-11-05T08:23:36.380Z,79.70
2022-11-05T08:26:02.503Z,79.74
2022-11-05T08:28:30.791Z,79.76
2022-11-05T08:30:56.909Z,79.96
2022-11-05T08:33:23.007Z,79.76
2022-11-05T08:35:49.091Z,79.87
2022-11-05T08:38:15.184Z,80.21
2022-11-05T08:40:41.341Z,79.93
2022-11-05T08:43:07.451Z,79.79
2022-11-05T08:45:33.554Z,80.01
2022-11-05T08:47:59.674Z,80.19
2022-11-05T08:50:25.891Z,79.85
2022-11-05T08:52:52.032Z,79.97
2022-11-05T08:55:18.174Z,80.22
2022-11-05T08:57:44.280Z,79.95
2022-11-05T09:00:10.380Z,80.23
2022-11-05T09:02:36.597Z,79.99
2022-11-05T09:05:02.752Z,80.04
2022-11-05T09:07:28.867Z,80.35
2022-11-05T09:09:55.055Z,80.33
2022-11-05T09:12:21.165Z,80.42
2022-11-05T09:14:47.308Z,80.19
2022-11-05T09:17:13.463Z,80.27
2022-11-05T09:19:40.251Z,80.28
2022-11-05T09:22:06.522Z,80.18
2022-11-05T09:24:32.874Z,80.03
2022-11-05T09:26:58.967Z,80.20
2022-11-05T09:29:25.091Z,80.05
2022-11-05T09:31:51.291Z,80.17
2022-11-05T09:34:18.981Z,79.99
2022-11-05T09:36:45.264Z,79.78
2022-11-05T09:39:11.732Z,79.90
2022-11-05T09:41:38.006Z,79.78
2022-11-05T09:44:04.115Z,79.68
2022-11-05T09:46:30.263Z,79.52
2022-11-05T09:48:59.645Z,79.59
2022-11-05T09:51:25.993Z,79.34
2022-11-05T09:53:53.358Z,79.18
2022-11-05T09:56:19.517Z,78.98
2022-11-05T09:58:45.741Z,79.05
2022-11-05T10:01:11.970Z,78.75
2022-11-05T10:03:38.161Z,78.78
2022-11-05T10:06:04.254Z,78.52
2022-11-05T10:08:30.366Z,78.41
2022-11-05T10:10:56.469Z,78.37
2022-11-05T10:13:22.577Z,78.18
2022-11-05T10:15:48.753Z,78.13
2022-11-05T10:18:14.845Z,77.93
2022-11-05T10:20:40.939Z,77.71
2022-11-05T10:23:07.059Z,77.37
2022-11-05T10:25:33.144Z,77.26
2022-11-05T10:27:59.234Z,77.17
2022-11-05T10:30:25.351Z,76.98
2022-11-05T10:32:51.445Z,76.78
2022-11-05T10:35:17.540Z,76.79
2022-11-05T10:37:43.944Z,76.54
2022-11-05T10:40:10.067Z,76.36
2022-11-05T10:42:36.173Z,76.06
2022-11-05T10:45:02.293Z,75.80
2022-11-05T10:47:28.391Z,75.46
2022-11-05T10:49:54.494Z,75.21
2022-11-05T10:52:20.602Z,74.82
2022-11-05T10:54:46.698Z,74.65
2022-11-05T10:57:14.620Z,74.32
2022-11-05T10:59:40.725Z,74.07
2022-11-05T11:02:06.928Z,73.83
2022-11-05T11:04:37.690Z,73.72
2022-11-05T11:07:04.280Z,73.35
2022-11-05T11:09:30.385Z,73.14
2022-11-05T11:11:56.487Z,72.80
2022-11-05T11:14:22.614Z,72.46
2022-11-05T11:16:48.706Z,71.92
2022-11-05T11:19:14.787Z,71.69
2022-11-05T11:21:40.933Z,71.54
2022-11-05T11:24:07.055Z,71.43
2022-11-05T11:26:33.155Z,70.97
2022-11-05T11:28:59.279Z,70.73
2022-11-05T11:31:25.384Z,70.48
2022-11-05T11:33:51.471Z,70.00
2022-11-05T11:36:17.571Z,69.73
2022-11-05T11:38:43.674Z,69.72
2022-11-05T11:41:09.764Z,69.35
2022-11-05T11:43:35.882Z,69.23
2022-11-05T11:46:06.110Z,69.19
2022-11-05T11:48:33.960Z,68.88
2022-11-05T11:51:00.064Z,68.69
2022-11-05T11:53:26.147Z,68.49
2022-11-05T11:55:52.260Z,68.49
2022-11-05T11:58:18.374Z,68.50
2022-11-05T12:00:44.469Z,68.46
2022-11-05T12:03:10.634Z,68.47
2022-11-05T12:05:36.810Z,68.47
2022-11-05T12:08:02.915Z,68.46
2022-11-05T12:10:29.014Z,68.38
2022-11-05T12:12:55.132Z,68.47
2022-11-05T12:15:21.210Z,68.40
2022-11-05T12:17:47.292Z,68.39
2022-11-05T12:20:13.462Z,68.17
2022-11-05T12:22:39.628Z,68.11
2022-11-05T12:25:05.736Z,68.04
2022-11-05T12:27:31.849Z,67.91
2022-11-05T12:29:57.937Z,67.73
2022-11-05T12:32:24.088Z,67.64
2022-11-05T12:34:50.320Z,67.59
2022-11-05T12:37:16.413Z,67.42
2022-11-05T12:39:42.512Z,67.28
2022-11-05T12:42:08.905Z,67.23
2022-11-05T12:44:35.018Z,67.11
2022-11-05T12:47:01.116Z,66.84
2022-11-05T12:49:27.224Z,66.78
2022-11-05T12:51:53.311Z,66.66
2022-11-05T12:54:19.412Z,66.51
2022-11-05T12:56:45.507Z,66.48
2022-11-05T12:59:11.594Z,66.48
2022-11-05T13:01:37.771Z,66.62
2022-11-05T13:04:03.957Z,66.49
2022-11-05T13:06:30.056Z,66.39
2022-11-05T13:08:56.150Z,66.42
2022-11-05T13:11:22.272Z,66.34
2022-11-05T13:13:48.361Z,66.27
2022-11-05T13:16:14.487Z,66.19
2022-11-05T13:18:40.585Z,66.18
2022-11-05T13:21:06.668Z,66.17
2022-11-05T13:23:32.750Z,66.12
2022-11-05T13:25:58.946Z,66.09
2022-11-05T13:28:25.040Z,65.99
2022-11-05T13:30:51.123Z,65.96
2022-11-05T13:33:17.256Z,65.98
2022-11-05T13:35:43.339Z,65.88
2022-11-05T13:38:09.430Z,65.88
2022-11-05T13:40:35.543Z,65.97
2022-11-05T13:43:01.658Z,65.93
2022-11-05T13:45:27.754Z,65.95
2022-11-05T13:47:53.855Z,65.93
2022-11-05T13:50:19.957Z,65.88
2022-11-05T13:52:46.050Z,65.93
2022-11-05T13:55:12.382Z,65.95
2022-11-05T13:57:38.525Z,65.93
2022-11-05T14:00:04.615Z,66.01
2022-11-05T14:02:30.861Z,66.01
2022-11-05T14:05:01.063Z,65.99
2022-11-05T14:07:27.771Z,66.22
2022-11-05T14:09:53.884Z,66.15
2022-11-05T14:12:19.983Z,66.26
2022-11-05T14:14:46.067Z,66.16
2022-11-05T14:17:12.178Z,66.16
2022-11-05T14:19:38.279Z,66.26
2022-11-05T14:22:04.377Z,66.08
2022-11-05T14:24:30.564Z,66.04
2022-11-05T14:26:56.656Z,66.03
2022-11-05T14:29:22.751Z,66.02
2022-11-05T14:32:07.905Z,66.05
2022-11-05T14:34:34.703Z,66.08
2022-11-05T14:37:00.861Z,66.14
2022-11-05T14:39:26.962Z,66.18
2022-11-05T14:41:53.056Z,66.30
2022-11-05T14:44:19.169Z,66.32
2022-11-05T14:46:45.268Z,66.44
2022-11-05T14:49:11.357Z,66.40
2022-11-05T14:51:37.828Z,66.53
2022-11-05T14:54:03.973Z,66.62
2022-11-05T14:56:30.076Z,66.61
2022-11-05T14:58:56.193Z,66.70
2022-11-05T15:01:22.401Z,66.78
2022-11-05T15:03:48.723Z,66.74
2022-11-05T15:06:14.891Z,66.85
2022-11-05T15:08:40.999Z,66.95
2022-11-05T15:11:07.096Z,67.10
2022-11-05T15:13:33.210Z,67.14
2022-11-05T15:15:59.336Z,66.97
2022-11-05T15:18:25.434Z,67.18
2022-11-05T15:20:51.549Z,67.42
2022-11-05T15:23:17.645Z,67.40
2022-11-05T15:25:45.830Z,67.42
2022-11-05T15:28:15.088Z,67.56
2022-11-05T15:30:41.175Z,67.74
2022-11-05T15:33:07.281Z,67.71
2022-11-05T15:35:33.395Z,68.00
2022-11-05T15:38:02.494Z,67.96
2022-11-05T15:40:28.864Z,68.01
2022-11-05T15:42:55.481Z,68.21
2022-11-05T15:45:21.588Z,68.10
2022-11-05T15:47:47.679Z,68.23
2022-11-05T15:50:15.034Z,68.30
2022-11-05T15:52:41.428Z,68.33
2022-11-05T15:55:07.513Z,68.46
2022-11-05T15:57:34.549Z,68.45
2022-11-05T16:00:02.994Z,68.44
2022-11-05T16:02:29.353Z,68.48
2022-11-05T16:04:55.575Z,68.60
2022-11-05T16:07:21.665Z,68.57
2022-11-05T16:09:47.759Z,68.69
2022-11-05T16:12:13.904Z,68.57
2022-11-05T16:14:39.991Z,68.77
2022-11-05T16:17:06.086Z,68.80
2022-11-05T16:19:37.014Z,68.87
2022-11-05T16:22:05.856Z,68.91
2022-11-05T16:24:31.943Z,68.86
2022-11-05T16:27:02.716Z,68.97
2022-11-05T16:29:29.273Z,68.92
2022-11-05T16:31:55.368Z,69.02
2022-11-05T16:34:21.481Z,69.15
2022-11-05T16:36:47.577Z,69.27
2022-11-05T16:39:13.673Z,69.40
2022-11-05T16:41:40.088Z,69.42
2022-11-05T16:44:06.183Z,69.64
2022-11-05T16:46:32.328Z,69.48
2022-11-05T16:48:58.443Z,69.59
2022-11-05T16:51:27.341Z,69.78
2022-11-05T16:53:53.713Z,69.71
2022-11-05T16:56:19.863Z,69.85
2022-11-05T16:58:45.956Z,69.78
2022-11-05T17:01:12.111Z,69.60
2022-11-05T17:03:38.257Z,69.77
2022-11-05T17:06:04.402Z,69.65
2022-11-05T17:08:30.490Z,69.78
2022-11-05T17:10:56.606Z,69.68
2022-11-05T17:13:22.710Z,69.82
2022-11-05T17:15:48.820Z,69.71
2022-11-05T17:18:18.611Z,69.63
2022-11-05T17:20:45.355Z,69.63
2022-11-05T17:23:11.893Z,69.51
2022-11-05T17:25:38.318Z,69.53
2022-11-05T17:28:04.419Z,69.71
2022-11-05T17:30:30.527Z,69.63
2022-11-05T17:32:56.688Z,69.43
2022-11-05T17:35:22.828Z,69.63
2022-11-05T17:37:48.911Z,69.52
2022-11-05T17:40:15.011Z,69.39
2022-11-05T17:42:41.104Z,69.36
2022-11-05T17:45:07.194Z,69.48
2022-11-05T17:47:33.311Z,69.47
2022-11-05T17:49:59.418Z,69.33
2022-11-05T17:52:25.529Z,69.43
2022-11-05T17:54:52.140Z,69.52
2022-11-05T17:57:18.236Z,69.46
2022-11-05T17:59:44.339Z,69.48
2022-11-05T18:02:10.585Z,69.42
2022-11-05T18:04:36.755Z,69.25
2022-11-05T18:07:02.852Z,69.29
2022-11-05T18:09:28.973Z,69.35
2022-11-05T18:11:55.069Z,69.32
2022-11-05T18:14:23.999Z,69.49
2022-11-05T18:16:50.405Z,69.34
2022-11-05T18:19:16.502Z,69.35
2022-11-05T18:21:42.580Z,69.20
2022-11-05T18:24:08.683Z,69.35
2022-11-05T18:26:34.772Z,69.44
2022-11-05T18:29:00.880Z,69.48
2022-11-05T18:31:26.995Z,69.63
2022-11-05T18:33:53.083Z,69.67
2022-11-05T18:36:19.179Z,69.95
2022-11-05T18:38:45.282Z,69.82
2022-11-05T18:41:11.363Z,69.95
2022-11-05T18:43:37.445Z,69.95
2022-11-05T18:46:04.075Z,70.16
2022-11-05T18:48:30.176Z,70.35
2022-11-05T18:51:00.733Z,70.42
2022-11-05T18:53:28.027Z,70.61
2022-11-05T18:55:54.113Z,70.51
2022-11-05T18:58:20.195Z,70.66
2022-11-05T19:00:46.295Z,70.74
2022-11-05T19:03:12.389Z,70.83
2022-11-05T19:05:38.476Z,70.92
2022-11-05T19:08:04.600Z,71.05
2022-11-05T19:10:30.689Z,71.06
2022-11-05T19:12:56.792Z,71.19
2022-11-05T19:15:22.904Z,71.31
2022-11-05T19:17:49.016Z,71.39
2022-11-05T19:20:15.114Z,71.74
2022-11-05T19:22:41.222Z,71.67
2022-11-05T19:25:07.313Z,71.65
2022-11-05T19:27:33.418Z,71.52
2022-11-05T19:29:59.515Z,71.74
2022-11-05T19:32:25.609Z,71.78
2022-11-05T19:34:51.705Z,71.87
2022-11-05T19:37:17.833Z,72.14
2022-11-05T19:39:43.952Z,72.07
2022-11-05T19:42:10.033Z,71.96
2022-11-05T19:44:36.161Z,71.97
2022-11-05T19:47:02.257Z,72.35
2022-11-05T19:49:28.353Z,72.55
2022-11-05T19:51:54.568Z,72.43
2022-11-05T19:54:20.656Z,72.55
2022-11-05T19:56:46.747Z,72.57
2022-11-05T19:59:12.905Z,72.79
2022-11-05T20:01:39.118Z,72.47
2022-11-05T20:04:05.331Z,72.58
2022-11-05T20:06:31.473Z,72.85
2022-11-05T20:09:20.657Z,72.80
2022-11-05T20:11:43.694Z,72.71
2022-11-05T20:14:09.796Z,72.74
2022-11-05T20:16:35.884Z,72.68
2022-11-05T20:19:02.002Z,72.70
2022-11-05T20:21:28.095Z,72.83
2022-11-05T20:23:54.207Z,73.08
2022-11-05T20:26:20.303Z,72.89
2022-11-05T20:28:46.416Z,72.90
2022-11-05T20:31:12.514Z,73.08
2022-11-05T20:33:38.630Z,72.96
2022-11-05T20:36:04.717Z,73.25
2022-11-05T20:38:30.809Z,73.00
2022-11-05T20:40:56.922Z,73.05
2022-11-05T20:43:27.590Z,73.03
2022-11-05T20:45:56.336Z,73.20
2022-11-05T20:48:22.550Z,73.22
2022-11-05T20:50:48.631Z,73.09
2022-11-05T20:53:14.732Z,73.17
2022-11-05T20:55:40.851Z,73.31
2022-11-05T20:58:06.961Z,73.44
2022-11-05T21:00:33.059Z,73.29
2022-11-05T21:02:59.517Z,73.29
2022-11-05T21:05:26.605Z,73.54
2022-11-05T21:07:55.014Z,73.23
2022-11-05T21:10:21.123Z,73.27
2022-11-05T21:12:47.242Z,73.17
2022-11-05T21:15:13.328Z,73.17
2022-11-05T21:17:39.437Z,73.43
2022-11-05T21:20:05.582Z,73.51
2022-11-05T21:22:31.687Z,73.27
2022-11-05T21:24:57.799Z,73.26
2022-11-05T21:27:23.915Z,73.62
2022-11-05T21:29:50.014Z,73.44
2022-11-05T21:32:16.137Z,73.41
2022-11-05T21:34:42.235Z,73.44
2022-11-05T21:37:08.362Z,73.58
2022-11-05T21:39:34.470Z,73.58
2022-11-05T21:42:00.561Z,73.59
2022-11-05T21:44:26.643Z,73.77
2022-11-05T21:46:52.754Z,73.51
2022-11-05T21:49:18.835Z,73.64
2022-11-05T21:51:44.928Z,73.85
2022-11-05T21:54:11.049Z,73.69
2022-11-05T21:56:37.138Z,73.60
2022-11-05T21:59:03.247Z,73.79
2022-11-05T22:01:29.764Z,73.85
2022-11-05T22:04:00.386Z,73.54
2022-11-05T22:06:28.852Z,73.97
2022-11-05T22:08:54.964Z,73.99
2022-11-05T22:11:21.065Z,73.96
2022-11-05T22:13:47.152Z,74.06
2022-11-05T22:16:13.266Z,73.91
2022-11-05T22:18:39.366Z,74.19
2022-11-05T22:21:05.451Z,74.08
2022-11-05T22:23:31.558Z,74.28
2022-11-05T22:25:57.664Z,74.07
2022-11-05T22:28:23.753Z,74.30
2022-11-05T22:30:49.875Z,74.26
2022-11-05T22:33:15.969Z,74.19
2022-11-05T22:35:42.049Z,74.32
2022-11-05T22:38:08.176Z,74.39
2022-11-05T22:40:34.272Z,74.31
2022-11-05T22:43:00.366Z,74.55
2022-11-05T22:45:26.473Z,74.61
2022-11-05T22:47:52.564Z,74.44
2022-11-05T22:50:18.650Z,74.55
2022-11-05T22:52:44.751Z,74.63
2022-11-05T22:55:10.836Z,74.69
2022-11-05T22:57:36.946Z,74.99
2022-11-05T23:00:03.539Z,74.86
2022-11-05T23:02:29.745Z,74.98
2022-11-05T23:04:55.900Z,74.99
2022-11-05T23:07:27.026Z,74.83
2022-11-05T23:09:53.839Z,75.00
2022-11-05T23:12:19.936Z,75.04
2022-11-05T23:14:46.039Z,74.83
2022-11-05T23:17:12.132Z,74.81
2022-11-05T23:19:38.233Z,75.13
2022-11-05T23:22:04.348Z,75.18
2022-11-05T23:24:30.445Z,75.23
2022-11-05T23:26:56.576Z,75.32
2022-11-05T23:29:22.704Z,75.16
2022-11-05T23:31:48.788Z,75.25
2022-11-05T23:34:14.870Z,75.39
2022-11-05T23:36:40.997Z,75.53
2022-11-05T23:39:07.088Z,75.29
2022-11-05T23:41:33.188Z,75.53
2022-11-05T23:43:59.308Z,75.78
2022-11-05T23:46:25.404Z,75.63
2022-11-05T23:48:51.491Z,75.84
2022-11-05T23:51:17.599Z,75.85
2022-11-05T23:53:43.697Z,75.69
2022-11-05T23:56:09.799Z,76.12
2022-11-05T23:58:35.910Z,76.00
